Cherry Grove, Minnesota
Current Conditions -  °F | °C
As of 7:55 AM on Monday 24 Nov 2014 (Local Time) from KFKA Reporting Station
Light Snow Light Snow  
Wind Chill: 10°   Ceiling: 1300
Heat Index: 25°   Visibility: 1.2mi
Dew Point: 23°   Wind: 21mph
Humidity: 92%   Direction: 300°WNW
Pressure: 29.3"   Gusts: 35mph
Location:  43.662°N, 92.3356°W
Report Text: KFKA 241355Z AUTO 30018G30KT 1 1/4SM -SN SCT007 OVC013 M04/M05 A2930 RMK AO2 T10401051
Loading
Personal Weather Stations






























Interactive Weather Map New forecast layout! Learn more

10-Day Weather Forecast

Advertisements
Track Severe Weather on mobile